Time;durP1;ratioP1;P1;durP2;ratioP2;P2;SDS_P1;SDS_P2;PMS_P1;PMS_P2;Temp;Humidity;BMP_temperature;BMP_pressure;BME280_temperature;BME280_humidity;BME280_pressure;Samples;Min_cycle;Max_cycle;Signal;HPM_P1;HPM_P2
2022/09/05 03:08:13;;;;;;;3.20;2.60;;;;;;;12.14;100.00;101607.13;4921802;29;20257;-72
2022/09/05 03:11:25;;;;;;;3.33;2.40;;;;;;;12.14;100.00;101612.34;4928975;29;20214;-73
2022/09/05 03:14:23;;;;;;;4.10;2.60;;;;;;;12.10;100.00;101615.88;4979089;28;20237;-71
2022/09/05 03:17:42;;;;;;;4.60;2.77;;;;;;;12.09;100.00;101614.19;5048999;28;20204;-74
2022/09/05 03:20:43;;;;;;;4.63;2.90;;;;;;;12.07;100.00;101613.34;5043641;28;20222;-74
2022/09/05 03:23:33;;;;;;;3.80;2.63;;;;;;;12.05;100.00;101615.13;5050467;28;20697;-71
2022/09/05 03:26:31;;;;;;;4.70;2.93;;;;;;;12.01;100.00;101614.28;5040737;28;20288;-71
2022/09/05 03:29:45;;;;;;;3.00;2.63;;;;;;;11.99;100.00;101616.06;5047442;28;20708;-72
2022/09/05 03:32:47;;;;;;;7.00;2.87;;;;;;;11.98;100.00;101623.94;5043011;28;20204;-71
2022/09/05 03:35:55;;;;;;;4.83;2.83;;;;;;;11.95;100.00;101622.25;5036856;28;20302;-76
2022/09/05 03:39:11;;;;;;;4.47;3.03;;;;;;;11.90;100.00;101616.19;5039380;28;20567;-71
2022/09/05 03:41:58;;;;;;;3.47;2.80;;;;;;;11.88;100.00;101617.97;5046079;28;20277;-71
2022/09/05 03:44:40;;;;;;;3.83;2.73;;;;;;;11.86;100.00;101617.13;5050782;28;20236;-70
2022/09/05 03:47:32;;;;;;;4.83;3.10;;;;;;;11.84;100.00;101616.31;5053928;28;20216;-72
2022/09/05 03:50:17;;;;;;;4.67;2.90;;;;;;;11.79;100.00;101613.75;5047547;28;20737;-72
2022/09/05 03:53:05;;;;;;;4.00;2.90;;;;;;;11.78;100.00;101613.78;5046687;28;20206;-73
2022/09/05 03:56:01;;;;;;;5.10;3.07;;;;;;;11.75;100.00;101618.16;5053142;28;20218;-72
2022/09/05 03:58:51;;;;;;;4.00;2.80;;;;;;;11.73;100.00;101614.72;5046852;28;20208;-72
2022/09/05 04:01:21;;;;;;;4.53;3.30;;;;;;;11.72;100.00;101622.56;5036987;28;20200;-74
2022/09/05 04:03:52;;;;;;;4.07;2.90;;;;;;;11.70;100.00;101626.97;5049095;28;20205;-72
2022/09/05 04:06:26;;;;;;;3.90;2.83;;;;;;;11.67;100.00;101630.47;5049041;28;20844;-71
2022/09/05 04:09:01;;;;;;;4.77;3.13;;;;;;;11.66;100.00;101617.44;5046990;28;20221;-72
2022/09/05 04:11:36;;;;;;;4.10;3.20;;;;;;;11.62;100.00;101620.97;5048491;28;20242;-75
2022/09/05 04:14:07;;;;;;;4.50;3.27;;;;;;;11.62;100.00;101618.38;5050434;28;20712;-71
2022/09/05 04:16:49;;;;;;;3.77;2.93;;;;;;;11.62;100.00;101626.19;5052156;28;20201;-74
2022/09/05 04:19:21;;;;;;;4.50;3.27;;;;;;;11.62;100.00;101620.97;5052316;28;20205;-72
2022/09/05 04:21:52;;;;;;;4.97;3.13;;;;;;;11.62;100.00;101618.38;5050274;28;20215;-71
2022/09/05 04:24:28;;;;;;;5.63;3.47;;;;;;;11.63;100.00;101623.56;5046189;28;20236;-73
2022/09/05 04:27:15;;;;;;;7.97;3.57;;;;;;;11.64;100.00;101621.81;5046961;28;20878;-72
2022/09/05 04:29:57;;;;;;;4.03;3.13;;;;;;;11.65;100.00;101623.56;5045879;28;20768;-72
2022/09/05 04:32:35;;;;;;;3.60;2.80;;;;;;;11.68;100.00;101619.16;5044912;28;20205;-72
2022/09/05 04:35:22;;;;;;;4.10;2.97;;;;;;;11.74;100.00;101623.41;5046672;28;20225;-74
2022/09/05 04:37:54;;;;;;;3.37;3.00;;;;;;;11.76;100.00;101629.47;5055154;28;20200;-71
2022/09/05 04:40:33;;;;;;;4.40;3.23;;;;;;;11.76;100.00;101629.47;5045145;28;20568;-75
2022/09/05 04:43:05;;;;;;;4.50;3.47;;;;;;;11.79;100.00;101632.03;5049857;28;20193;-71
2022/09/05 04:45:37;;;;;;;4.97;3.43;;;;;;;11.80;100.00;101635.50;5040608;28;20991;-73
2022/09/05 04:48:07;;;;;;;5.03;3.30;;;;;;;11.77;100.00;101641.66;5053110;28;20216;-71
2022/09/05 04:50:45;;;;;;;5.27;3.50;;;;;;;11.79;100.00;101642.50;5043435;28;20216;-71
2022/09/05 04:53:19;;;;;;;5.10;3.63;;;;;;;11.80;100.00;101646.81;5038203;28;20198;-76
2022/09/05 04:55:49;;;;;;;4.17;2.90;;;;;;;11.81;100.00;101645.09;5053386;28;20212;-75
2022/09/05 04:58:26;;;;;;;4.67;3.30;;;;;;;11.81;100.00;101640.72;5046654;28;20289;-71
2022/09/05 05:00:58;;;;;;;5.30;3.67;;;;;;;11.82;100.00;101647.69;5050155;28;20201;-74
2022/09/05 05:03:27;;;;;;;3.87;3.00;;;;;;;11.81;100.00;101637.25;5047831;28;20620;-74
2022/09/05 05:05:58;;;;;;;6.17;3.83;;;;;;;11.85;100.00;101644.13;5047937;28;20212;-73
2022/09/05 05:08:31;;;;;;;3.87;3.30;;;;;;;11.88;100.00;101644.09;5047155;28;20559;-72
2022/09/05 05:11:01;;;;;;;4.63;3.33;;;;;;;11.90;100.00;101644.94;5022046;28;20255;-72
2022/09/05 05:13:35;;;;;;;4.93;3.60;;;;;;;11.93;100.00;101650.16;5050009;28;20199;-71
2022/09/05 05:16:06;;;;;;;4.00;3.27;;;;;;;12.00;100.00;101656.16;5049083;28;20199;-73
2022/09/05 05:18:35;;;;;;;6.43;3.77;;;;;;;12.04;100.00;101656.06;5044100;28;20205;-71
2022/09/05 05:21:04;;;;;;;6.10;3.70;;;;;;;12.10;100.00;101660.31;5053848;28;20827;-73
2022/09/05 05:23:37;;;;;;;4.77;3.40;;;;;;;12.15;100.00;101660.25;5047426;28;20206;-71
2022/09/05 05:26:06;;;;;;;4.73;3.53;;;;;;;12.18;100.00;101658.47;5049354;28;20195;-71
2022/09/05 05:28:48;;;;;;;4.87;3.47;;;;;;;12.22;100.00;101664.50;5052684;28;20204;-71
2022/09/05 05:31:18;;;;;;;6.43;3.50;;;;;;;12.27;100.00;101662.69;5052346;28;20194;-74
2022/09/05 05:33:48;;;;;;;5.60;3.93;;;;;;;12.33;100.00;101659.97;5051964;28;20275;-72
2022/09/05 05:36:20;;;;;;;6.70;3.80;;;;;;;12.38;100.00;101663.34;5060373;28;20667;-72
2022/09/05 05:38:53;;;;;;;4.17;3.40;;;;;;;12.44;100.00;101663.25;5050355;28;20194;-74
2022/09/05 05:41:24;;;;;;;5.63;3.80;;;;;;;12.50;100.00;101657.94;5051892;28;20668;-71
2022/09/05 05:43:52;;;;;;;4.97;3.53;;;;;;;12.55;100.00;101660.44;5051400;28;20332;-75
2022/09/05 05:46:30;;;;;;;5.77;3.47;;;;;;;12.62;100.00;101664.69;5050298;28;20192;-73
2022/09/05 05:49:08;;;;;;;5.33;3.60;;;;;;;12.71;100.00;101665.41;5053883;28;20702;-71
2022/09/05 05:51:43;;;;;;;5.87;3.93;;;;;;;12.79;100.00;101668.75;5056100;28;20202;-71
2022/09/05 05:54:24;;;;;;;4.30;3.70;;;;;;;12.87;100.00;101664.22;5052870;28;20214;-74
2022/09/05 05:57:33;;;;;;;8.57;3.63;;;;;;;12.93;100.00;101671.97;5037912;28;20195;-71
2022/09/05 06:00:06;;;;;;;8.13;3.97;;;;;;;13.03;100.00;101675.25;5053423;28;20195;-73
2022/09/05 06:03:11;;;;;;;5.87;3.83;;;;;;;13.12;100.00;101674.22;5051339;28;20206;-73
2022/09/05 06:06:31;;;;;;;9.00;4.13;;;;;;;13.21;100.00;101681.91;5045627;28;20584;-75
2022/09/05 06:09:25;;;;;;;6.00;3.87;;;;;;;13.27;100.00;101682.63;4983882;28;20435;-73
2022/09/05 06:12:24;;;;;;;4.70;3.63;;;;;;;13.34;100.00;101675.53;4983577;28;20215;-71
2022/09/05 06:15:13;;;;;;;5.87;3.73;;;;;;;13.43;100.00;101679.72;5046183;28;20249;-72
2022/09/05 06:18:26;;;;;;;5.13;3.70;;;;;;;13.42;100.00;101680.59;5050345;28;20783;-73
2022/09/05 06:21:20;;;;;;;5.03;4.03;;;;;;;13.46;100.00;101677.03;5002298;28;20330;-74
2022/09/05 06:24:24;;;;;;;6.67;4.47;;;;;;;13.53;100.00;101675.16;5050491;28;20203;-73
2022/09/05 06:27:20;;;;;;;4.40;3.60;;;;;;;13.61;100.00;101681.06;5044888;28;20278;-72
2022/09/05 06:29:57;;;;;;;4.70;3.70;;;;;;;13.64;100.00;101679.25;5051825;28;20210;-72
2022/09/05 06:32:36;;;;;;;7.60;4.40;;;;;;;13.74;100.00;101685.16;5057794;28;20383;-73
2022/09/05 06:35:18;;;;;;;6.17;3.80;;;;;;;13.83;100.00;101689.31;5055515;28;20214;-71
2022/09/05 06:37:59;;;;;;;5.33;3.77;;;;;;;13.91;100.00;101682.16;5053391;28;20208;-74
2022/09/05 06:40:31;;;;;;;7.67;4.30;;;;;;;14.03;100.00;101681.00;5050292;28;20210;-73
2022/09/05 06:43:12;;;;;;;6.33;4.10;;;;;;;14.14;100.00;101696.47;5050648;28;20196;-72
2022/09/05 06:45:59;;;;;;;6.17;3.83;;;;;;;14.25;100.00;101693.56;5049889;28;20219;-74
2022/09/05 06:48:32;;;;;;;4.50;3.87;;;;;;;14.33;100.00;101689.88;5046311;28;20208;-71
2022/09/05 06:51:32;;;;;;;6.23;3.80;;;;;;;14.45;100.00;101693.94;5049708;28;20576;-72
2022/09/05 06:54:24;;;;;;;4.77;3.90;;;;;;;14.53;100.00;101697.25;5048000;28;20230;-71
2022/09/05 06:57:04;;;;;;;7.30;4.53;;;;;;;14.67;100.00;101704.81;5056322;28;20285;-73
2022/09/05 06:59:52;;;;;;;4.33;3.63;;;;;;;14.80;100.00;101692.22;5053082;28;20202;-72
2022/09/05 07:02:23;;;;;;;4.87;4.00;;;;;;;14.90;100.00;101693.69;5046824;28;20245;-71
2022/09/05 07:05:10;;;;;;;6.07;3.83;;;;;;;15.02;100.00;101697.75;5030162;28;20207;-71
2022/09/05 07:07:43;;;;;;;5.23;3.87;;;;;;;15.19;100.00;101696.41;5032198;28;20215;-73
2022/09/05 07:10:17;;;;;;;8.80;4.53;;;;;;;15.32;100.00;101698.66;5040827;28;20207;-71
2022/09/05 07:12:47;;;;;;;5.20;4.20;;;;;;;15.47;100.00;101701.72;5050555;28;20200;-71
2022/09/05 07:15:26;;;;;;;6.07;4.30;;;;;;;15.64;100.00;101704.72;5051598;28;20315;-75
2022/09/05 07:18:02;;;;;;;7.63;4.30;;;;;;;15.77;100.00;101707.00;5055628;28;20200;-71
2022/09/05 07:20:36;;;;;;;4.73;3.83;;;;;;;15.95;100.00;101705.56;5054080;28;20210;-71
2022/09/05 07:23:12;;;;;;;6.60;4.33;;;;;;;15.95;100.00;101701.16;5053877;28;20206;-74
2022/09/05 07:25:43;;;;;;;6.30;4.07;;;;;;;16.00;100.00;101698.38;5052394;28;20229;-73
2022/09/05 07:28:13;;;;;;;5.00;4.23;;;;;;;16.12;100.00;101689.25;5052227;28;20199;-73
2022/09/05 07:30:46;;;;;;;5.63;4.20;;;;;;;16.27;100.00;101689.59;5055052;28;20575;-71
2022/09/05 07:33:18;;;;;;;7.53;4.80;;;;;;;16.38;100.00;101691.03;5048156;28;20203;-74
2022/09/05 07:35:49;;;;;;;5.73;4.07;;;;;;;16.50;100.00;101697.63;5047916;28;20238;-75
2022/09/05 07:38:20;;;;;;;4.97;4.10;;;;;;;16.66;100.00;101697.06;5047307;28;20547;-74
2022/09/05 07:40:52;;;;;;;5.20;4.03;;;;;;;16.86;100.00;101702.59;5049344;28;20656;-73
2022/09/05 07:43:22;;;;;;;6.00;4.60;;;;;;;16.98;100.00;101692.47;5047913;28;20850;-74
2022/09/05 07:46:02;;;;;;;6.63;4.20;;;;;;;17.06;100.00;101700.06;5046963;28;20297;-71
2022/09/05 07:48:32;;;;;;;17.63;8.87;;;;;;;17.17;100.00;101695.28;5055749;28;20207;-73
2022/09/05 07:51:02;;;;;;;14.70;8.40;;;;;;;17.29;100.00;101701.00;5048451;28;20413;-70
2022/09/05 07:53:30;;;;;;;22.23;10.33;;;;;;;17.30;100.00;101708.00;5033155;28;20199;-72
2022/09/05 07:56:01;;;;;;;8.47;5.93;;;;;;;17.28;100.00;101708.06;5046255;28;20207;-73
2022/09/05 07:58:38;;;;;;;16.30;9.73;;;;;;;17.30;100.00;101713.28;5046591;28;20223;-71
2022/09/05 08:01:05;;;;;;;7.23;5.43;;;;;;;17.34;100.00;101705.22;5047326;28;20641;-71
2022/09/05 08:03:32;;;;;;;7.13;5.90;;;;;;;17.46;100.00;101703.88;5052013;28;20206;-73
2022/09/05 08:06:04;;;;;;;6.50;4.83;;;;;;;17.54;100.00;101706.25;5050075;28;20693;-70
2022/09/05 08:08:38;;;;;;;6.27;4.77;;;;;;;17.73;100.00;101703.72;5045185;28;20219;-74
2022/09/05 08:11:10;;;;;;;8.23;5.03;;;;;;;17.91;100.00;101705.69;5051935;28;20226;-71
2022/09/05 08:13:53;;;;;;;6.17;5.10;;;;;;;18.02;100.00;101704.41;5047497;28;20221;-72
2022/09/05 08:16:22;;;;;;;8.10;5.20;;;;;;;18.01;100.00;101706.19;5046660;28;20199;-70
2022/09/05 08:18:53;;;;;;;7.50;5.40;;;;;;;18.06;100.00;101709.47;5050866;28;20584;-70
2022/09/05 08:21:25;;;;;;;8.63;5.80;;;;;;;18.13;100.00;101707.47;5040931;28;20196;-74
2022/09/05 08:23:57;;;;;;;10.67;6.20;;;;;;;18.34;100.00;101711.00;5046874;28;20219;-71
2022/09/05 08:26:35;;;;;;;6.70;5.90;;;;;;;18.42;100.00;101708.91;5053437;28;20625;-71
2022/09/05 08:29:10;;;;;;;7.20;5.53;;;;;;;18.31;100.00;101711.13;5048534;28;20199;-70
2022/09/05 08:31:41;;;;;;;5.60;4.90;;;;;;;18.46;100.00;101714.91;5030156;28;20280;-72
2022/09/05 08:34:14;;;;;;;6.07;4.77;;;;;;;18.53;100.00;101711.09;5054232;28;20223;-70
2022/09/05 08:36:46;;;;;;;7.20;5.27;;;;;;;18.64;100.00;101714.13;5048348;28;20657;-74
2022/09/05 08:39:17;;;;;;;5.77;4.50;;;;;;;18.78;100.00;101695.03;5047730;28;20199;-72
2022/09/05 08:42:00;;;;;;;7.23;5.20;;;;;;;18.83;100.00;101702.81;5048264;28;20199;-70
2022/09/05 08:44:35;;;;;;;9.27;5.73;;;;;;;18.89;100.00;101700.75;5053880;28;20785;-71
2022/09/05 08:47:14;;;;;;;7.60;4.57;;;;;;;19.02;100.00;101695.78;5048983;28;20198;-71
2022/09/05 08:50:09;;;;;;;5.30;4.77;;;;;;;19.16;100.00;101699.59;5044783;28;20203;-71
2022/09/05 08:52:50;;;;;;;10.00;5.70;;;;;;;19.08;100.00;101699.94;5035653;28;20200;-72
2022/09/05 08:55:28;;;;;;;6.67;4.73;;;;;;;19.15;100.00;101692.59;5049266;28;20218;-70
2022/09/05 08:58:04;;;;;;;6.90;4.40;;;;;;;19.26;100.00;101698.22;5065541;28;20221;-72
2022/09/05 09:00:36;;;;;;;5.33;4.60;;;;;;;19.35;100.00;101692.53;5060282;28;20233;-70
2022/09/05 09:03:12;;;;;;;5.37;4.53;;;;;;;19.40;100.00;101685.25;5050984;28;20633;-72
2022/09/05 09:06:15;;;;;;;5.07;4.40;;;;;;;19.61;100.00;101678.09;5041591;28;20528;-72
2022/09/05 09:08:54;;;;;;;4.23;3.83;;;;;;;19.75;100.00;101685.41;5040372;28;20191;-71
2022/09/05 09:11:30;;;;;;;5.27;4.00;;;;;;;19.87;100.00;101683.94;5047707;28;20235;-71
2022/09/05 09:14:31;;;;;;;5.93;4.37;;;;;;;19.92;100.00;101681.09;5048270;28;20553;-71
2022/09/05 09:17:05;;;;;;;6.33;4.27;;;;;;;19.90;100.00;101678.50;5046062;28;20207;-71
2022/09/05 09:19:45;;;;;;;5.10;4.40;;;;;;;19.98;100.00;101672.81;5047376;28;20234;-71
2022/09/05 09:22:20;;;;;;;4.87;4.27;;;;;;;20.21;100.00;101669.03;5045442;28;20195;-72
2022/09/05 09:24:59;;;;;;;5.17;3.87;;;;;;;20.34;100.00;101664.84;5051956;28;20230;-71
2022/09/05 09:27:36;;;;;;;5.00;3.83;;;;;;;20.46;100.00;101670.47;5051408;28;20340;-71
2022/09/05 09:30:05;;;;;;;6.10;4.50;;;;;;;20.35;99.49;101673.63;5030186;28;20212;-71
2022/09/05 09:32:43;;;;;;;5.20;4.03;;;;;;;20.41;100.00;101663.59;5047696;28;20204;-71
2022/09/05 09:35:18;;;;;;;4.60;3.83;;;;;;;20.57;100.00;101661.00;5026039;28;20227;-71
2022/09/05 09:38:21;;;;;;;7.17;4.47;;;;;;;20.71;99.79;101659.47;5054023;28;20194;-71
2022/09/05 09:41:23;;;;;;;5.80;3.73;;;;;;;20.78;98.13;101645.81;5055822;28;20209;-71
2022/09/05 09:44:08;;;;;;;4.63;4.13;;;;;;;20.87;100.00;101655.06;5052681;28;20214;-71
2022/09/05 09:46:42;;;;;;;5.47;4.00;;;;;;;20.91;98.06;101653.97;5045788;28;20859;-71
2022/09/05 09:49:31;;;;;;;5.17;4.10;;;;;;;21.06;96.62;101654.94;5045712;28;20207;-71
2022/09/05 09:52:22;;;;;;;5.13;4.13;;;;;;;21.14;96.57;101651.88;5056004;28;20292;-71
2022/09/05 09:55:26;;;;;;;8.40;4.10;;;;;;;21.25;97.99;101649.50;5044560;28;20227;-71
2022/09/05 09:58:19;;;;;;;5.37;3.80;;;;;;;21.42;96.00;101650.38;5049845;28;20210;-71
2022/09/05 10:00:51;;;;;;;5.53;4.30;;;;;;;21.48;97.63;101650.06;5043928;28;20206;-71
2022/09/05 10:03:45;;;;;;;5.63;4.77;;;;;;;21.59;93.36;101658.25;5049533;28;20202;-71
2022/09/05 10:06:54;;;;;;;4.93;4.07;;;;;;;21.67;94.49;101650.75;5050269;28;20206;-71
2022/09/05 10:09:31;;;;;;;4.93;4.30;;;;;;;21.77;95.97;101650.22;5049054;28;20209;-71
2022/09/05 10:12:24;;;;;;;5.00;3.70;;;;;;;21.92;96.02;101649.34;5043379;28;20235;-71
2022/09/05 10:15:00;;;;;;;5.43;4.50;;;;;;;21.99;92.83;101661.31;5049183;28;20711;-71
2022/09/05 10:17:50;;;;;;;5.07;4.27;;;;;;;22.10;95.55;101648.25;5055427;28;20198;-71
2022/09/05 10:20:49;;;;;;;4.43;4.00;;;;;;;22.06;90.83;101657.34;5045451;28;20203;-71
2022/09/05 10:23:44;;;;;;;6.70;4.10;;;;;;;22.08;89.51;101663.41;5026472;28;20194;-71
2022/09/05 10:26:49;;;;;;;5.38;4.35;;;;;;;21.84;90.05;101646.25;5044556;28;20724;-71
2022/09/05 10:29:37;;;;;;;5.50;4.57;;;;;;;21.68;91.25;101643.63;5048829;28;20228;-71
2022/09/05 10:32:07;;;;;;;7.90;4.38;;;;;;;21.52;92.83;101635.69;5046255;28;20518;-71
2022/09/05 10:34:46;;;;;;;5.40;4.80;;;;;;;21.54;93.36;101636.44;5049841;28;20306;-71
2022/09/05 10:37:14;;;;;;;5.88;4.30;;;;;;;21.45;94.24;101634.28;5044243;28;20202;-71
2022/09/05 10:39:45;;;;;;;5.10;4.50;;;;;;;21.70;94.92;101629.31;5051579;28;20214;-71
2022/09/05 10:42:16;;;;;;;4.60;4.20;;;;;;;22.00;91.77;101643.56;5050173;28;20783;-71
2022/09/05 10:44:46;;;;;;;5.47;4.47;;;;;;;22.12;90.65;101630.41;5051645;28;20218;-71
2022/09/05 10:47:32;;;;;;;5.53;4.65;;;;;;;22.31;88.42;101638.19;5050199;28;20194;-71
2022/09/05 10:50:08;;;;;;;5.57;4.13;;;;;;;22.47;90.03;101630.16;5055063;28;20702;-71
2022/09/05 10:52:36;;;;;;;6.05;4.72;;;;;;;22.81;91.36;101628.09;5051400;28;20219;-71
2022/09/05 10:55:20;;;;;;;5.25;4.50;;;;;;;22.90;88.19;101629.31;5053793;28;20757;-71
2022/09/05 10:57:59;;;;;;;5.38;4.40;;;;;;;23.04;89.02;101620.47;5048416;28;20619;-71
2022/09/05 11:00:58;;;;;;;4.22;3.83;;;;;;;22.80;86.27;101628.19;5046368;28;20782;-71
2022/09/05 11:03:29;;;;;;;5.50;4.35;;;;;;;22.45;86.73;101620.56;5036176;28;20215;-71
2022/09/05 11:05:58;;;;;;;4.30;3.90;;;;;;;22.73;88.96;101617.09;5048165;28;20203;-71
2022/09/05 11:08:35;;;;;;;4.97;4.47;;;;;;;22.90;86.46;101621.34;5048224;28;20210;-71
2022/09/05 11:11:14;;;;;;;5.05;4.55;;;;;;;22.99;87.74;101618.13;5045215;28;20216;-71
2022/09/05 11:13:45;;;;;;;5.88;4.10;;;;;;;22.77;85.61;101623.91;5044268;28;20200;-71
2022/09/05 11:16:23;;;;;;;4.63;4.22;;;;;;;22.71;85.23;101611.00;5048276;28;20195;-71
2022/09/05 11:18:56;;;;;;;4.57;4.18;;;;;;;22.89;86.09;101616.97;5045941;28;20191;-72
2022/09/05 11:21:31;;;;;;;4.15;3.75;;;;;;;23.14;85.60;101611.00;5048827;28;20220;-73
2022/09/05 11:24:03;;;;;;;5.63;4.30;;;;;;;23.05;84.32;101604.44;5046168;28;20354;-71
2022/09/05 11:26:35;;;;;;;5.15;4.15;;;;;;;22.88;84.42;101605.50;5046896;28;20199;-71
2022/09/05 11:29:06;;;;;;;5.20;4.15;;;;;;;22.88;84.63;101607.28;5046922;28;20199;-72
2022/09/05 11:31:43;;;;;;;5.97;4.15;;;;;;;23.11;84.67;101600.53;5050423;28;20716;-71
2022/09/05 11:34:34;;;;;;;6.97;4.15;;;;;;;23.50;82.92;101604.28;5049198;28;20210;-71
2022/09/05 11:37:03;;;;;;;5.03;3.92;;;;;;;23.61;82.25;101601.75;5047559;28;20206;-71
2022/09/05 11:40:03;;;;;;;5.50;4.18;;;;;;;23.70;82.81;101602.94;5048161;28;20766;-71
2022/09/05 11:42:47;;;;;;;5.28;4.13;;;;;;;23.50;81.15;101603.38;5050334;28;20262;-71
2022/09/05 11:45:44;;;;;;;5.43;4.60;;;;;;;23.31;81.75;101607.25;5047711;28;21189;-72
2022/09/05 11:48:42;;;;;;;5.32;4.50;;;;;;;23.29;82.99;101595.00;5040313;28;20699;-71
2022/09/05 11:51:41;;;;;;;5.18;4.60;;;;;;;23.11;81.76;101597.88;5041489;28;20211;-71
2022/09/05 11:54:41;;;;;;;6.43;4.47;;;;;;;23.02;81.93;101604.63;5030261;28;20231;-71
2022/09/05 11:57:22;;;;;;;5.30;4.75;;;;;;;23.01;82.51;101597.59;5048902;28;20206;-71
2022/09/05 12:00:11;;;;;;;5.53;4.15;;;;;;;22.88;81.73;101599.31;5047340;28;20195;-71
2022/09/05 12:02:56;;;;;;;4.80;4.30;;;;;;;22.81;82.83;101593.53;5046021;28;20291;-71
2022/09/05 12:05:51;;;;;;;4.60;4.18;;;;;;;22.95;82.16;101597.13;5041265;28;20215;-71
2022/09/05 12:08:34;;;;;;;5.78;4.10;;;;;;;22.87;80.76;101600.28;5048639;28;20199;-71
2022/09/05 12:11:11;;;;;;;5.10;3.88;;;;;;;22.86;80.49;101593.25;5048243;28;20222;-71
2022/09/05 12:13:44;;;;;;;6.85;4.55;;;;;;;23.02;84.61;101582.50;5056669;28;20728;-71
2022/09/05 12:16:36;;;;;;;7.55;4.47;;;;;;;23.16;84.67;101587.81;5050958;28;20254;-71
2022/09/05 12:19:11;;;;;;;6.13;4.65;;;;;;;23.01;83.33;101589.63;5055292;28;20203;-71
2022/09/05 12:21:49;;;;;;;5.43;4.60;;;;;;;22.91;83.50;101585.00;5031629;28;20207;-71
2022/09/05 12:24:25;;;;;;;6.00;4.45;;;;;;;22.89;84.31;101590.41;5044515;28;20219;-71
2022/09/05 12:26:58;;;;;;;7.85;4.78;;;;;;;23.00;82.72;101584.41;5044824;28;20209;-71
2022/09/05 12:29:28;;;;;;;5.35;4.47;;;;;;;23.26;84.40;101577.44;5049979;28;20203;-71
2022/09/05 12:31:58;;;;;;;5.38;4.63;;;;;;;23.45;80.73;101571.78;5047263;28;20272;-71
2022/09/05 12:34:48;;;;;;;5.75;4.65;;;;;;;23.53;81.61;101561.47;5048004;28;20612;-71
2022/09/05 12:37:24;;;;;;;4.80;4.28;;;;;;;23.67;78.12;101565.03;5046131;28;20225;-71
2022/09/05 12:39:55;;;;;;;5.18;3.70;;;;;;;23.65;77.22;101558.97;5043943;28;20202;-72
2022/09/05 12:42:30;;;;;;;4.10;3.70;;;;;;;23.63;78.10;101556.41;5046426;28;20231;-71
2022/09/05 12:45:08;;;;;;;4.25;3.85;;;;;;;23.57;77.96;101555.00;5046414;28;20230;-71
2022/09/05 12:47:53;;;;;;;4.65;4.00;;;;;;;23.33;76.70;101553.97;5046287;28;20199;-71
2022/09/05 12:50:24;;;;;;;7.28;3.72;;;;;;;23.17;78.16;101554.09;5051666;28;20205;-72
2022/09/05 12:52:58;;;;;;;3.78;3.30;;;;;;;22.91;78.11;101553.09;5028090;28;20706;-71
2022/09/05 12:55:29;;;;;;;4.75;4.18;;;;;;;22.75;78.47;101554.03;5050189;28;20227;-71
2022/09/05 12:58:01;;;;;;;4.45;3.70;;;;;;;22.72;78.28;101551.56;5045779;28;20210;-71
2022/09/05 13:00:27;;;;;;;6.07;4.50;;;;;;;22.68;79.32;101550.06;5044527;28;20233;-71
2022/09/05 13:02:59;;;;;;;4.03;3.63;;;;;;;22.67;78.42;101551.88;5047982;28;20200;-71
2022/09/05 13:05:44;;;;;;;4.43;3.85;;;;;;;22.83;79.30;101548.22;5045021;28;20301;-71
2022/09/05 13:08:20;;;;;;;4.53;3.97;;;;;;;23.05;81.17;101540.63;5045487;28;20213;-71
2022/09/05 13:10:52;;;;;;;5.68;4.57;;;;;;;23.32;80.04;101544.25;5042356;28;20245;-71
2022/09/05 13:13:27;;;;;;;5.85;3.95;;;;;;;23.42;76.26;101554.19;5044563;28;20233;-72
2022/09/05 13:15:55;;;;;;;4.82;4.07;;;;;;;23.48;75.57;101541.44;5044617;28;20214;-71
2022/09/05 13:18:24;;;;;;;4.30;3.90;;;;;;;23.50;75.06;101540.41;5046668;28;20227;-71
2022/09/05 13:21:06;;;;;;;4.80;4.30;;;;;;;23.51;77.74;101544.75;5049421;28;20504;-71
2022/09/05 13:23:38;;;;;;;4.85;4.35;;;;;;;23.50;77.01;101543.06;5044521;28;20195;-71
2022/09/05 13:26:10;;;;;;;4.75;4.05;;;;;;;23.65;76.54;101543.00;5042675;28;20203;-72
2022/09/05 13:28:50;;;;;;;4.18;3.78;;;;;;;23.79;74.96;101545.56;5044503;28;20206;-71
2022/09/05 13:31:55;;;;;;;4.50;4.07;;;;;;;23.76;73.78;101549.31;5037806;28;20317;-71
2022/09/05 13:34:25;;;;;;;5.88;3.92;;;;;;;23.84;73.13;101548.81;5040421;28;20219;-71
2022/09/05 13:36:59;;;;;;;5.28;4.10;;;;;;;23.86;70.91;101548.72;5041535;28;20226;-72
2022/09/05 13:39:36;;;;;;;5.03;3.53;;;;;;;23.82;72.40;101545.41;5040327;28;20226;-71
2022/09/05 13:42:03;;;;;;;5.20;3.80;;;;;;;23.70;71.93;101548.84;5047931;28;20202;-71
2022/09/05 13:44:37;;;;;;;4.88;3.70;;;;;;;23.66;72.43;101539.34;5047940;28;20634;-71
2022/09/05 13:47:09;;;;;;;4.28;3.47;;;;;;;23.51;72.15;101554.53;5047666;28;20281;-71
2022/09/05 13:49:43;;;;;;;7.03;3.65;;;;;;;23.37;72.51;101545.66;5048402;28;20714;-71
2022/09/05 13:52:26;;;;;;;4.10;3.70;;;;;;;23.32;72.95;101549.56;5049704;28;20218;-71
2022/09/05 13:55:07;;;;;;;5.35;3.88;;;;;;;23.16;72.64;101542.59;5043513;28;20622;-71
2022/09/05 13:57:38;;;;;;;4.30;3.90;;;;;;;23.23;73.08;101551.88;5043112;28;20202;-71
2022/09/05 14:00:50;;;;;;;3.50;3.20;;;;;;;23.30;72.50;101541.69;5045328;28;20222;-71
2022/09/05 14:03:35;;;;;;;3.95;3.30;;;;;;;23.46;71.87;101538.03;5047256;28;20203;-71
2022/09/05 14:06:19;;;;;;;4.85;3.95;;;;;;;23.38;71.06;101543.88;5047110;28;22113;-72
2022/09/05 14:09:02;;;;;;;4.90;4.40;;;;;;;23.10;72.16;101535.03;5047584;28;20706;-71
2022/09/05 14:11:51;;;;;;;5.05;3.85;;;;;;;23.15;71.79;101529.41;5045824;28;20199;-72
2022/09/05 14:14:22;;;;;;;5.38;3.40;;;;;;;23.06;72.36;101529.06;5045666;28;20594;-71
2022/09/05 14:17:02;;;;;;;4.18;3.50;;;;;;;22.97;73.88;101526.09;5046298;28;20603;-71
2022/09/05 14:22:34;;;;;;;4.57;4.00;;;;;;;22.91;73.00;101523.84;5046738;28;20649;-71
2022/09/05 14:25:02;;;;;;;5.25;3.40;;;;;;;22.90;71.58;101520.28;5047825;28;20230;-72
2022/09/05 14:27:29;;;;;;;3.45;2.97;;;;;;;23.03;72.53;101515.91;5050449;28;20199;-71
2022/09/05 14:29:56;;;;;;;4.70;3.35;;;;;;;23.04;73.22;101512.31;5048857;28;20194;-71
2022/09/05 14:32:40;;;;;;;4.43;3.75;;;;;;;22.86;71.87;101518.78;5048904;28;20701;-71
2022/09/05 14:35:12;;;;;;;4.32;3.78;;;;;;;22.73;71.64;101517.88;5046185;28;20219;-71
2022/09/05 14:37:46;;;;;;;4.90;3.85;;;;;;;22.69;73.11;101517.22;5052321;28;20198;-71
2022/09/05 14:40:44;;;;;;;4.75;3.95;;;;;;;22.76;73.32;101513.22;5043715;28;20191;-72
2022/09/05 14:43:29;;;;;;;5.07;3.78;;;;;;;22.78;73.05;101513.09;5052630;28;20238;-71
2022/09/05 14:46:22;;;;;;;6.90;4.25;;;;;;;22.92;73.22;101513.09;5045893;28;20215;-71
2022/09/05 14:49:22;;;;;;;5.63;3.80;;;;;;;23.04;73.66;101506.13;5047425;28;20226;-71
2022/09/05 14:51:51;;;;;;;3.97;3.58;;;;;;;;;;5045106;28;20702;-71
2022/09/05 14:54:21;;;;;;;3.67;3.38;;;;;;;23.23;72.81;101506.66;5046908;28;20211;-71
2022/09/05 14:56:51;;;;;;;4.38;3.42;;;;;;;23.25;71.60;101503.91;5049132;28;20196;-71
2022/09/05 14:59:24;;;;;;;4.75;3.50;;;;;;;23.09;70.42;101503.19;5044441;28;20206;-72
2022/09/05 15:01:56;;;;;;;3.80;3.35;;;;;;;22.98;70.11;101523.31;5047359;28;20305;-71
2022/09/05 15:04:26;;;;;;;3.38;3.08;;;;;;;22.87;70.05;101513.38;5043976;28;20475;-71
2022/09/05 15:07:08;;;;;;;4.07;3.33;;;;;;;22.88;70.83;101508.91;5047018;28;20245;-72
2022/09/05 15:09:35;;;;;;;4.07;3.50;;;;;;;22.90;71.59;101508.81;5047615;28;20191;-72
2022/09/05 15:12:16;;;;;;;3.83;3.17;;;;;;;22.84;71.25;101510.06;5047082;28;20211;-71
2022/09/05 15:14:52;;;;;;;3.25;2.95;;;;;;;22.83;70.96;101509.22;5042662;28;20330;-72
2022/09/05 15:17:24;;;;;;;3.60;3.30;;;;;;;22.75;70.08;101511.50;5066514;22;20198;-72
2022/09/05 15:19:55;;;;;;;3.85;3.30;;;;;;;22.73;70.81;101509.91;5002769;28;20227;-73
2022/09/05 15:22:26;;;;;;;3.60;3.30;;;;;;;22.68;70.05;101508.38;5006610;28;20192;-72
2022/09/05 15:25:01;;;;;;;4.07;3.65;;;;;;;22.61;70.44;101509.72;5008483;28;20661;-72
2022/09/05 15:27:28;;;;;;;3.75;3.45;;;;;;;22.63;69.77;101515.78;5008361;28;20220;-72
2022/09/05 15:29:56;;;;;;;4.35;2.95;;;;;;;22.65;70.42;101499.75;5006987;28;20676;-73